Aérodrome :
LOGIN :

S'inscrire | Disclaimer

   EN    FR    IT 

 










Légende :    VFR   VFR Marginal   IFR   IFR Intensif   IFR Très Intensif
Visi : 
Plafond : 
>= 8 km
>= 3000ft
5 à 8 km
1000 à 3000 ft
1500m à 5 km
500 à 1000 ft
800 à 1500m
200 à 500 ft
< 800m
< 200 ft
Symboles :   Orages  Brouillard  Fortes neiges  Fortes précipitations  Vent > 20 kt
SIGMETs :   Divers  Orages  Givrage  Turbulence  Onde Orograph.  Cendres Volcan.







- Altitude de l'aérodrome : 14 ft
- Code IATA : BRE


EDDW - Bremen Neuenland

DERNIER METAR :
  • 112050Z 30006KT 9999 FEW028 02/00 Q1023 NOSIG

METARs EXPIRÉS :
  • 112020Z 30005KT 9999 BKN028 03/01 Q1023 NOSIG
  • 111950Z 30006KT 9999 BKN025 03/01 Q1023 NOSIG
  • 111920Z 30004KT 9999 BKN025 03/01 Q1023 NOSIG
  • 111850Z 30005KT 9999 BKN025 02/01 Q1022 NOSIG
  • 111820Z 33004KT 9999 SCT025 04/01 Q1022 NOSIG

TAF TAF EDDW
Valide du 11 à 18h jusqu'au 12 à 18h UTC


111700Z 1118/1218 34005KT 9999 BKN035
PROB30
TEMPO 1203/1208 BKN012
BECMG 1207/1209 04006KT
PROB30
TEMPO 1212/1218 BKN012
Pas de NOTAMs connus pour ce terrain.



MET'MAP, la Météo Aéronautique d'un coup d'oeil ! - Copyright ORBIFLY Décembre 2007 - Disclaimer

ORBIFLY MET'MAP TEAM :

Programmation & Développement : Alexandra Zaïnal
Conception & Développement : Baudouin d'Aumeries
Co-Programmation & Développement : Marc-Olivier Méhu
Soutien technique & logistique : Manuel Goepfert

Contact : metmap@orbifly.com




SOURCES & CREDITS :

   NOAA